Time;durP1;ratioP1;P1;durP2;ratioP2;P2;SDS_P1;SDS_P2;PMS_P1;PMS_P2;Temp;Humidity;BMP_temperature;BMP_pressure;BME280_temperature;BME280_humidity;BME280_pressure;Samples;Min_cycle;Max_cycle;Signal;HPM_P1;HPM_P2
2024/03/11 00:00:39;;;;;;;163.83;78.57;;;9.40;99.90;;;;;;788842;180;26476;-78
2024/03/11 00:03:07;;;;;;;137.43;67.73;;;9.40;99.90;;;;;;794581;180;26446;-80
2024/03/11 00:05:32;;;;;;;97.30;52.27;;;9.30;99.90;;;;;;786143;180;26429;-78
2024/03/11 00:07:59;;;;;;;141.17;69.03;;;9.30;99.90;;;;;;794802;180;26462;-80
2024/03/11 00:10:27;;;;;;;209.27;95.17;;;9.30;99.90;;;;;;812620;176;26963;-79
2024/03/11 00:12:53;;;;;;;142.90;64.43;;;9.30;99.90;;;;;;785321;180;26446;-78
2024/03/11 00:15:21;;;;;;;153.30;76.43;;;9.30;99.90;;;;;;802664;177;26427;-78
2024/03/11 00:17:48;;;;;;;94.40;48.43;;;9.30;99.90;;;;;;788397;180;26987;-80
2024/03/11 00:20:15;;;;;;;126.27;62.10;;;9.20;99.90;;;;;;804332;177;26426;-78
2024/03/11 00:22:42;;;;;;;111.13;53.43;;;9.10;99.90;;;;;;811693;177;26476;-79
2024/03/11 00:25:09;;;;;;;106.53;51.30;;;9.10;99.90;;;;;;799303;177;26472;-78
2024/03/11 00:27:36;;;;;;;83.30;44.87;;;9.00;99.90;;;;;;811522;177;26398;-80
2024/03/11 00:30:06;;;;;;;121.97;60.90;;;9.10;99.90;;;;;;792281;180;26458;-79
2024/03/11 00:32:31;;;;;;;166.07;78.47;;;9.00;99.90;;;;;;810852;176;26885;-79
2024/03/11 00:34:58;;;;;;;104.97;51.17;;;8.90;99.90;;;;;;787465;178;26455;-78
2024/03/11 00:37:25;;;;;;;122.10;57.43;;;8.90;99.90;;;;;;809860;176;26989;-79
2024/03/11 00:39:51;;;;;;;132.53;57.17;;;9.00;99.90;;;;;;811603;177;26500;-78
2024/03/11 00:42:18;;;;;;;137.60;62.93;;;9.10;99.90;;;;;;804452;177;26424;-78
2024/03/11 00:44:46;;;;;;;114.10;51.80;;;9.10;99.90;;;;;;804323;175;26954;-78
2024/03/11 00:47:11;;;;;;;87.03;44.87;;;9.20;99.90;;;;;;802784;177;26443;-80
2024/03/11 00:49:38;;;;;;;88.40;44.47;;;9.00;99.90;;;;;;789027;180;26463;-79
2024/03/11 00:52:04;;;;;;;112.67;52.83;;;9.00;99.90;;;;;;813884;176;26430;-78
2024/03/11 00:54:31;;;;;;;102.47;49.67;;;8.90;99.90;;;;;;789695;180;26439;-79
2024/03/11 00:56:58;;;;;;;133.43;58.17;;;9.10;99.90;;;;;;802040;177;26451;-78
2024/03/11 00:59:24;;;;;;;138.90;61.93;;;9.10;99.90;;;;;;803944;176;26434;-79
2024/03/11 01:01:51;;;;;;;138.30;58.87;;;9.20;99.90;;;;;;812917;176;26407;-78
2024/03/11 01:04:21;;;;;;;116.20;56.30;;;9.30;99.90;;;;;;790561;180;26455;-79
2024/03/11 01:06:44;;;;;;;134.23;58.33;;;9.30;99.90;;;;;;803176;176;26420;-78
2024/03/11 01:09:11;;;;;;;144.27;61.67;;;9.40;99.90;;;;;;801858;177;26450;-78
2024/03/11 01:11:37;;;;;;;117.20;55.87;;;9.30;99.90;;;;;;805819;177;26439;-78
2024/03/11 01:14:04;;;;;;;115.50;53.90;;;9.30;99.90;;;;;;801341;177;26424;-78
2024/03/11 01:16:31;;;;;;;137.50;60.63;;;9.20;99.90;;;;;;811348;176;26639;-77
2024/03/11 01:18:58;;;;;;;136.03;59.33;;;9.20;99.90;;;;;;794749;180;26529;-78
2024/03/11 01:21:24;;;;;;;134.00;58.83;;;9.20;99.90;;;;;;806725;177;27041;-79
2024/03/11 01:23:51;;;;;;;115.30;53.80;;;9.10;99.90;;;;;;804274;177;26415;-80
2024/03/11 01:26:17;;;;;;;142.97;64.00;;;9.10;99.90;;;;;;806789;177;28021;-78
2024/03/11 01:28:43;;;;;;;134.30;62.37;;;9.10;99.90;;;;;;802348;177;26444;-78
2024/03/11 01:31:10;;;;;;;150.60;65.63;;;9.00;99.90;;;;;;798953;177;26444;-79
2024/03/11 01:33:37;;;;;;;139.17;64.23;;;9.00;99.90;;;;;;808790;177;26444;-79
2024/03/11 01:36:03;;;;;;;125.90;57.67;;;8.90;99.90;;;;;;802978;177;26594;-78
2024/03/11 01:38:30;;;;;;;146.47;66.43;;;9.00;99.90;;;;;;800549;177;26435;-78
2024/03/11 01:40:57;;;;;;;174.33;73.87;;;9.00;99.90;;;;;;809136;177;26989;-78
2024/03/11 01:43:24;;;;;;;190.50;77.63;;;9.00;99.90;;;;;;799845;177;27525;-78
2024/03/11 01:45:50;;;;;;;162.97;73.33;;;9.00;99.90;;;;;;804825;176;26976;-78
2024/03/11 01:48:16;;;;;;;170.37;76.80;;;9.00;99.90;;;;;;809386;176;26439;-78
2024/03/11 01:50:43;;;;;;;153.00;71.13;;;8.90;99.90;;;;;;805409;177;26443;-80
2024/03/11 01:53:10;;;;;;;172.03;77.63;;;8.90;99.90;;;;;;810047;177;26410;-79
2024/03/11 01:55:37;;;;;;;151.50;72.80;;;8.90;99.90;;;;;;783244;180;28085;-79
2024/03/11 01:58:03;;;;;;;161.70;77.47;;;8.80;99.90;;;;;;812953;176;26446;-79
2024/03/11 02:00:30;;;;;;;171.53;79.57;;;8.80;99.90;;;;;;784890;180;26472;-79
2024/03/11 02:02:56;;;;;;;165.73;75.73;;;8.80;99.90;;;;;;813211;176;26461;-79
2024/03/11 02:05:24;;;;;;;176.37;82.50;;;8.80;99.90;;;;;;788746;180;26441;-79
2024/03/11 02:08:00;;;;;;;220.97;94.17;;;8.80;99.90;;;;;;785425;180;26498;-79
2024/03/11 02:10:27;;;;;;;193.43;86.97;;;8.90;99.90;;;;;;814963;176;26448;-79
2024/03/11 02:12:55;;;;;;;212.03;91.77;;;8.90;99.90;;;;;;789286;180;26448;-79
2024/03/11 02:15:21;;;;;;;209.67;90.80;;;8.90;99.90;;;;;;812872;176;26442;-79
2024/03/11 02:17:47;;;;;;;248.67;104.67;;;8.80;99.90;;;;;;786958;180;26438;-80
2024/03/11 02:20:16;;;;;;;217.83;96.00;;;8.80;99.90;;;;;;810423;176;26460;-78
2024/03/11 02:22:46;;;;;;;197.43;88.77;;;8.80;99.90;;;;;;805569;177;26510;-79
2024/03/11 02:25:13;;;;;;;191.17;90.00;;;8.80;99.90;;;;;;811070;176;26421;-79
2024/03/11 02:27:40;;;;;;;189.93;85.83;;;8.90;99.90;;;;;;810670;176;26487;-79
2024/03/11 02:30:07;;;;;;;240.83;105.77;;;8.80;99.90;;;;;;809998;177;26435;-80
2024/03/11 02:32:35;;;;;;;212.30;99.00;;;8.80;99.90;;;;;;786016;180;27071;-79
2024/03/11 02:35:02;;;;;;;182.63;88.23;;;8.90;99.90;;;;;;785238;180;26681;-80
2024/03/11 02:37:28;;;;;;;245.73;107.37;;;8.80;99.90;;;;;;812721;176;26426;-79
2024/03/11 02:39:55;;;;;;;198.60;86.53;;;8.90;99.90;;;;;;808350;176;26455;-79
2024/03/11 02:42:21;;;;;;;247.80;109.23;;;8.80;99.90;;;;;;812295;176;26444;-79
2024/03/11 02:44:48;;;;;;;203.13;96.37;;;8.80;99.90;;;;;;793215;180;26478;-80
2024/03/11 02:47:15;;;;;;;194.40;89.97;;;8.70;99.90;;;;;;810383;176;26463;-78
2024/03/11 02:49:41;;;;;;;237.43;108.03;;;8.70;99.90;;;;;;801128;176;27112;-79
2024/03/11 02:52:08;;;;;;;208.47;94.10;;;8.70;99.90;;;;;;808658;177;26483;-78
2024/03/11 02:54:37;;;;;;;198.37;95.87;;;8.70;99.90;;;;;;783066;181;26505;-78
2024/03/11 02:57:01;;;;;;;183.63;86.33;;;8.70;99.90;;;;;;812096;174;28245;-80
2024/03/11 02:59:28;;;;;;;246.53;110.13;;;8.60;99.90;;;;;;788814;180;26458;-79
2024/03/11 03:01:54;;;;;;;247.70;106.03;;;8.70;99.90;;;;;;810043;176;26463;-79
2024/03/11 03:04:21;;;;;;;229.27;104.03;;;8.70;99.90;;;;;;805268;177;27009;-79
2024/03/11 03:06:47;;;;;;;218.70;101.37;;;8.70;99.90;;;;;;796439;177;26413;-81
2024/03/11 03:09:15;;;;;;;223.07;100.57;;;8.70;99.90;;;;;;805120;177;26514;-78
2024/03/11 03:11:41;;;;;;;248.67;110.10;;;8.60;99.90;;;;;;805936;177;26435;-78
2024/03/11 03:14:07;;;;;;;309.90;123.37;;;8.60;99.90;;;;;;805770;177;26416;-78
2024/03/11 03:16:34;;;;;;;261.17;111.53;;;8.70;99.90;;;;;;794941;177;26412;-78
2024/03/11 03:19:00;;;;;;;277.70;122.07;;;8.70;99.90;;;;;;802794;177;26443;-77
2024/03/11 03:21:27;;;;;;;245.20;110.13;;;8.70;99.90;;;;;;804374;177;26420;-78
2024/03/11 03:23:54;;;;;;;291.73;118.87;;;8.70;99.90;;;;;;796478;177;26445;-78
2024/03/11 03:26:20;;;;;;;239.50;109.93;;;8.70;99.90;;;;;;807275;177;26438;-78
2024/03/11 03:28:48;;;;;;;230.00;106.17;;;8.70;99.90;;;;;;802161;177;26984;-78
2024/03/11 03:31:14;;;;;;;256.77;111.73;;;8.70;99.90;;;;;;807201;177;26621;-78
2024/03/11 03:33:41;;;;;;;281.53;115.83;;;8.70;99.90;;;;;;803986;177;26408;-79
2024/03/11 03:36:08;;;;;;;239.07;107.80;;;8.80;99.90;;;;;;808067;176;26405;-79
2024/03/11 03:38:34;;;;;;;220.27;104.37;;;8.70;99.90;;;;;;793843;180;26481;-78
2024/03/11 03:41:01;;;;;;;260.23;111.43;;;8.70;99.90;;;;;;809950;177;26492;-78
2024/03/11 03:43:27;;;;;;;241.60;105.30;;;8.70;99.90;;;;;;788212;180;26500;-79
2024/03/11 03:45:54;;;;;;;239.53;109.07;;;8.70;99.90;;;;;;811782;176;26964;-78
2024/03/11 03:48:21;;;;;;;248.87;108.73;;;8.70;99.90;;;;;;781792;180;26485;-79
2024/03/11 03:50:47;;;;;;;247.30;108.37;;;8.70;99.90;;;;;;809406;176;26499;-78
2024/03/11 03:53:14;;;;;;;255.57;103.07;;;8.70;99.90;;;;;;809819;177;26478;-78
2024/03/11 03:55:40;;;;;;;223.90;102.37;;;8.60;99.90;;;;;;809593;177;26410;-79
2024/03/11 03:58:07;;;;;;;275.13;110.40;;;8.70;99.90;;;;;;793395;179;26455;-79
2024/03/11 04:00:35;;;;;;;259.60;108.03;;;8.70;99.90;;;;;;808369;172;27054;-78
2024/03/11 04:03:03;;;;;;;246.50;106.97;;;8.60;99.90;;;;;;810598;174;26452;-79
2024/03/11 04:05:27;;;;;;;274.80;113.97;;;8.60;99.90;;;;;;812472;173;26436;-78
2024/03/11 04:07:53;;;;;;;270.30;109.10;;;8.70;99.90;;;;;;800258;179;26464;-80
2024/03/11 04:10:20;;;;;;;331.63;119.57;;;8.80;99.90;;;;;;799365;176;26439;-79
2024/03/11 04:12:47;;;;;;;243.27;106.47;;;8.80;99.90;;;;;;793070;181;26609;-80
2024/03/11 04:15:16;;;;;;;245.23;106.63;;;8.80;99.90;;;;;;793476;181;26437;-80
2024/03/11 04:17:41;;;;;;;278.77;112.20;;;8.70;99.90;;;;;;806936;177;28015;-78
2024/03/11 04:20:12;;;;;;;235.77;101.70;;;8.80;99.90;;;;;;807479;178;26437;-79
2024/03/11 04:22:38;;;;;;;214.43;96.07;;;8.80;99.90;;;;;;804037;177;26451;-80
2024/03/11 04:25:05;;;;;;;267.67;107.30;;;8.70;99.90;;;;;;795528;180;28035;-79
2024/03/11 04:27:33;;;;;;;239.00;103.20;;;8.70;99.90;;;;;;802474;177;26410;-80
2024/03/11 04:29:59;;;;;;;229.03;103.00;;;8.80;99.90;;;;;;804429;178;26434;-81
2024/03/11 04:32:25;;;;;;;206.33;91.47;;;8.80;99.90;;;;;;799851;177;26434;-78
2024/03/11 04:34:52;;;;;;;212.77;92.60;;;8.80;99.90;;;;;;809315;177;26558;-80
2024/03/11 04:37:18;;;;;;;184.03;89.23;;;8.80;99.90;;;;;;795487;180;26958;-80
2024/03/11 04:39:45;;;;;;;207.40;96.37;;;8.80;99.90;;;;;;808617;177;26431;-80
2024/03/11 04:42:12;;;;;;;208.40;96.43;;;8.80;99.90;;;;;;804689;178;26996;-80
2024/03/11 04:44:38;;;;;;;183.43;89.83;;;8.90;99.90;;;;;;802857;178;26423;-78
2024/03/11 04:47:05;;;;;;;177.67;84.87;;;8.90;99.90;;;;;;804366;177;26431;-81
2024/03/11 04:49:32;;;;;;;235.93;102.97;;;8.80;99.90;;;;;;804627;178;26449;-80
2024/03/11 04:51:58;;;;;;;200.87;91.83;;;8.80;99.90;;;;;;786090;181;26471;-78
2024/03/11 04:54:26;;;;;;;208.67;97.87;;;8.90;99.90;;;;;;792727;180;26429;-80
2024/03/11 04:56:52;;;;;;;219.20;100.47;;;8.80;99.90;;;;;;806967;176;26563;-80
2024/03/11 04:59:18;;;;;;;182.50;87.50;;;8.70;99.90;;;;;;805243;175;26591;-79
2024/03/11 05:01:45;;;;;;;174.93;85.77;;;8.80;99.90;;;;;;809895;173;26434;-80
2024/03/11 05:04:12;;;;;;;189.10;91.80;;;8.70;99.90;;;;;;795403;178;26412;-77
2024/03/11 05:06:39;;;;;;;235.77;104.67;;;8.70;99.90;;;;;;792541;180;26465;-79
2024/03/11 05:09:05;;;;;;;206.50;95.30;;;8.70;99.90;;;;;;794876;177;26444;-79
2024/03/11 05:11:32;;;;;;;210.07;95.40;;;8.70;99.90;;;;;;796812;177;26451;-80
2024/03/11 05:13:58;;;;;;;206.80;88.40;;;8.70;99.90;;;;;;795181;180;26458;-81
2024/03/11 05:16:26;;;;;;;222.67;101.97;;;8.70;99.90;;;;;;793591;180;26421;-78
2024/03/11 05:18:52;;;;;;;232.27;103.30;;;8.70;99.90;;;;;;791966;180;26478;-80
2024/03/11 05:21:19;;;;;;;260.57;110.67;;;8.70;99.90;;;;;;794863;179;26440;-81
2024/03/11 05:23:45;;;;;;;230.07;105.17;;;8.70;99.90;;;;;;794318;178;26554;-80
2024/03/11 05:26:12;;;;;;;209.90;96.23;;;8.70;99.90;;;;;;793668;180;26464;-79
2024/03/11 05:28:38;;;;;;;231.40;107.37;;;8.70;99.90;;;;;;793671;180;26517;-80
2024/03/11 05:31:05;;;;;;;229.73;106.97;;;8.70;99.90;;;;;;794896;180;26596;-79
2024/03/11 05:33:33;;;;;;;213.10;99.53;;;8.60;99.90;;;;;;793901;180;26478;-79
2024/03/11 05:35:58;;;;;;;226.87;108.63;;;8.60;99.90;;;;;;794294;180;26578;-80
2024/03/11 05:38:25;;;;;;;235.27;109.43;;;8.60;99.90;;;;;;794095;180;26454;-80
2024/03/11 05:40:51;;;;;;;237.07;111.97;;;8.50;99.90;;;;;;793358;180;26436;-80
2024/03/11 05:43:18;;;;;;;229.30;111.47;;;8.60;99.90;;;;;;793528;180;26989;-81
2024/03/11 05:45:47;;;;;;;247.43;114.87;;;8.50;99.90;;;;;;793750;180;26424;-79
2024/03/11 05:48:12;;;;;;;274.73;120.83;;;8.60;99.90;;;;;;793932;178;26434;-81
2024/03/11 05:50:38;;;;;;;267.30;122.97;;;8.60;99.90;;;;;;793447;180;27650;-81
2024/03/11 05:53:05;;;;;;;214.43;102.20;;;8.50;99.90;;;;;;792420;180;26586;-80
2024/03/11 05:55:32;;;;;;;210.17;101.10;;;8.50;99.90;;;;;;792219;180;26574;-80
2024/03/11 05:58:08;;;;;;;216.93;104.73;;;8.50;99.90;;;;;;794333;180;26431;-77
2024/03/11 06:00:26;;;;;;;202.30;98.43;;;8.50;99.90;;;;;;792286;180;26462;-80
2024/03/11 06:02:53;;;;;;;230.33;107.37;;;8.40;99.90;;;;;;792717;180;26439;-81
2024/03/11 06:05:20;;;;;;;220.40;105.63;;;8.50;99.90;;;;;;792789;180;26428;-80
2024/03/11 06:07:46;;;;;;;190.50;87.40;;;8.40;99.90;;;;;;793984;180;26571;-82
2024/03/11 06:10:13;;;;;;;225.57;108.47;;;8.40;99.90;;;;;;792829;181;26434;-83
2024/03/11 06:12:39;;;;;;;245.57;116.87;;;8.40;99.90;;;;;;796612;180;26443;-81
2024/03/11 06:15:07;;;;;;;246.30;116.53;;;8.40;99.90;;;;;;792963;180;26425;-79
2024/03/11 06:17:33;;;;;;;210.87;103.90;;;8.50;99.90;;;;;;793803;180;26416;-80
2024/03/11 06:20:00;;;;;;;199.90;102.00;;;8.50;99.90;;;;;;792961;180;26618;-78
2024/03/11 06:22:27;;;;;;;205.17;97.73;;;8.50;99.90;;;;;;792911;181;26433;-81
2024/03/11 06:24:53;;;;;;;197.97;98.20;;;8.40;99.90;;;;;;796624;180;26428;-80
2024/03/11 06:27:19;;;;;;;258.20;118.07;;;8.40;99.90;;;;;;781291;181;26411;-79
2024/03/11 06:29:46;;;;;;;212.60;99.70;;;8.40;99.90;;;;;;792318;180;26428;-79
2024/03/11 06:32:13;;;;;;;215.17;106.03;;;8.50;99.90;;;;;;793864;179;27259;-80
2024/03/11 06:34:40;;;;;;;208.37;100.83;;;8.50;99.90;;;;;;794986;180;26448;-81
2024/03/11 06:37:05;;;;;;;198.57;96.37;;;8.50;99.90;;;;;;794135;180;26980;-81
2024/03/11 06:39:32;;;;;;;239.87;106.57;;;8.50;99.90;;;;;;795526;180;26432;-81
2024/03/11 06:41:59;;;;;;;236.77;107.97;;;8.50;99.90;;;;;;795197;180;26432;-81
2024/03/11 06:44:26;;;;;;;226.50;106.70;;;8.50;99.90;;;;;;793455;180;26450;-81
2024/03/11 06:46:52;;;;;;;251.87;113.20;;;8.50;99.90;;;;;;793608;180;26424;-81
2024/03/11 06:49:19;;;;;;;193.80;88.00;;;8.50;99.90;;;;;;793002;177;26501;-81
2024/03/11 06:51:46;;;;;;;196.33;89.30;;;8.50;99.90;;;;;;793203;180;26424;-80
2024/03/11 06:54:12;;;;;;;232.57;107.63;;;8.50;99.90;;;;;;792398;181;26488;-78
2024/03/11 06:56:39;;;;;;;206.20;95.30;;;8.50;99.90;;;;;;794645;180;26421;-77
2024/03/11 06:59:05;;;;;;;200.23;93.73;;;8.50;99.90;;;;;;794184;179;26634;-80
2024/03/11 07:01:33;;;;;;;244.17;108.67;;;8.50;99.90;;;;;;793604;180;26580;-81
2024/03/11 07:03:58;;;;;;;192.47;89.63;;;8.50;99.90;;;;;;793274;180;26424;-81
2024/03/11 07:06:25;;;;;;;180.03;84.73;;;8.60;99.90;;;;;;794854;180;26419;-79
2024/03/11 07:08:52;;;;;;;185.93;83.93;;;8.50;99.90;;;;;;792320;181;26579;-79
2024/03/11 07:11:18;;;;;;;192.00;90.00;;;8.50;99.90;;;;;;793685;180;26468;-80
2024/03/11 07:13:45;;;;;;;152.60;68.27;;;8.50;99.90;;;;;;792977;178;26424;-80
2024/03/11 07:16:12;;;;;;;129.17;60.83;;;8.50;99.90;;;;;;793635;180;26435;-79
2024/03/11 07:18:40;;;;;;;136.53;60.37;;;8.50;99.90;;;;;;792483;180;27006;-79
2024/03/11 07:21:06;;;;;;;83.67;41.03;;;8.50;99.90;;;;;;793350;180;26436;-81
2024/03/11 07:23:33;;;;;;;57.87;29.70;;;8.40;99.90;;;;;;792327;180;27023;-80
2024/03/11 07:25:58;;;;;;;51.93;29.30;;;8.40;99.90;;;;;;793820;180;26579;-79
2024/03/11 07:28:26;;;;;;;55.83;29.53;;;8.40;99.90;;;;;;792285;178;26432;-81
2024/03/11 07:30:52;;;;;;;44.77;23.77;;;8.50;99.90;;;;;;792831;181;26436;-79
2024/03/11 07:33:20;;;;;;;28.80;15.73;;;8.60;99.90;;;;;;792692;180;26420;-80
2024/03/11 07:35:47;;;;;;;34.87;18.53;;;8.50;99.90;;;;;;793299;180;26424;-79
2024/03/11 07:38:12;;;;;;;27.57;16.10;;;8.50;99.90;;;;;;794820;180;26425;-78
2024/03/11 07:40:40;;;;;;;32.50;16.43;;;8.60;99.90;;;;;;793708;179;26443;-78
2024/03/11 07:43:06;;;;;;;19.23;11.77;;;8.50;99.90;;;;;;794522;178;26441;-80
2024/03/11 07:45:33;;;;;;;21.67;12.30;;;8.50;99.90;;;;;;798645;180;26625;-80
2024/03/11 07:48:01;;;;;;;17.73;11.60;;;8.50;99.90;;;;;;797351;180;26550;-79
2024/03/11 07:50:26;;;;;;;18.73;11.03;;;8.50;99.90;;;;;;795687;178;26440;-83
2024/03/11 07:52:54;;;;;;;12.87;7.33;;;8.60;99.90;;;;;;795569;180;26417;-80
2024/03/11 07:55:22;;;;;;;12.10;7.73;;;8.50;99.90;;;;;;793167;178;26590;-79
2024/03/11 07:57:46;;;;;;;12.97;8.03;;;8.50;99.90;;;;;;793117;180;26587;-80
2024/03/11 08:00:18;;;;;;;12.70;8.07;;;8.50;99.90;;;;;;777770;180;26506;-79
2024/03/11 08:02:41;;;;;;;14.07;9.23;;;8.50;99.90;;;;;;793086;180;26970;-79
2024/03/11 08:05:13;;;;;;;11.73;6.67;;;8.50;99.90;;;;;;793262;180;26431;-81
2024/03/11 08:07:35;;;;;;;15.17;7.87;;;8.50;99.90;;;;;;792384;180;26432;-77
2024/03/11 08:10:02;;;;;;;13.43;8.07;;;8.50;99.90;;;;;;791796;180;27018;-79
2024/03/11 08:12:28;;;;;;;14.13;9.13;;;8.60;99.90;;;;;;791369;178;26488;-78
2024/03/11 08:14:55;;;;;;;13.17;8.57;;;8.60;99.90;;;;;;792440;180;26442;-79
2024/03/11 08:17:22;;;;;;;18.20;10.00;;;8.70;99.90;;;;;;793241;178;26444;-79
2024/03/11 08:19:48;;;;;;;18.07;9.30;;;8.80;99.90;;;;;;794458;180;26514;-79
2024/03/11 08:22:16;;;;;;;11.50;7.00;;;8.80;99.90;;;;;;793996;180;26431;-80
2024/03/11 08:24:42;;;;;;;15.23;8.23;;;8.70;99.90;;;;;;793304;180;26437;-79
2024/03/11 08:27:09;;;;;;;11.57;6.90;;;8.50;99.90;;;;;;793370;178;26473;-79
2024/03/11 08:29:35;;;;;;;14.40;7.90;;;8.50;99.90;;;;;;796880;180;26679;-79
2024/03/11 08:32:05;;;;;;;9.70;6.10;;;8.40;99.90;;;;;;793895;180;26436;-81
2024/03/11 08:34:29;;;;;;;10.77;6.27;;;8.40;99.90;;;;;;793357;179;26446;-79
2024/03/11 08:36:55;;;;;;;7.20;4.37;;;8.40;99.90;;;;;;794429;178;26586;-78
2024/03/11 08:39:24;;;;;;;6.73;3.90;;;8.40;99.90;;;;;;796194;180;26428;-81
2024/03/11 08:41:53;;;;;;;8.60;4.57;;;8.30;99.90;;;;;;794042;180;26591;-80
2024/03/11 08:44:15;;;;;;;8.77;5.50;;;8.30;99.90;;;;;;793013;180;26437;-81
2024/03/11 08:46:43;;;;;;;8.87;4.43;;;8.30;99.90;;;;;;793562;180;27693;-79
2024/03/11 08:49:11;;;;;;;5.80;3.90;;;8.30;99.90;;;;;;794538;178;26421;-81
2024/03/11 08:51:36;;;;;;;7.77;4.90;;;8.20;99.90;;;;;;793604;180;26439;-79
2024/03/11 08:54:03;;;;;;;7.00;4.03;;;8.20;99.90;;;;;;793071;180;26481;-80
2024/03/11 08:56:30;;;;;;;7.57;4.60;;;8.20;99.90;;;;;;795154;177;26582;-79
2024/03/11 08:58:56;;;;;;;8.17;5.10;;;8.20;99.90;;;;;;793606;180;26486;-81
2024/03/11 09:01:23;;;;;;;7.30;4.53;;;8.30;99.90;;;;;;795472;180;26966;-80
2024/03/11 09:03:49;;;;;;;9.63;5.47;;;8.30;99.90;;;;;;795276;179;26454;-80
2024/03/11 09:06:16;;;;;;;6.63;4.27;;;8.30;99.90;;;;;;793237;178;26436;-80
2024/03/11 09:08:44;;;;;;;7.17;4.17;;;8.30;99.90;;;;;;793072;180;26982;-79
2024/03/11 09:11:10;;;;;;;8.93;5.27;;;8.20;99.90;;;;;;793716;180;26439;-79
2024/03/11 09:13:36;;;;;;;11.17;5.60;;;8.30;99.90;;;;;;793183;180;26472;-79
2024/03/11 09:16:02;;;;;;;9.97;6.07;;;8.30;99.90;;;;;;792983;180;26421;-78
2024/03/11 09:18:29;;;;;;;9.17;5.57;;;8.30;99.90;;;;;;793265;180;26497;-78
2024/03/11 09:20:56;;;;;;;13.53;6.60;;;8.30;99.90;;;;;;792599;180;26605;-78
2024/03/11 09:23:23;;;;;;;17.40;7.20;;;8.30;99.90;;;;;;792642;180;27050;-79
2024/03/11 09:25:49;;;;;;;9.20;5.60;;;8.30;99.90;;;;;;792776;178;26452;-79
2024/03/11 09:28:17;;;;;;;11.23;6.50;;;8.30;99.90;;;;;;794884;180;26994;-79
2024/03/11 09:30:43;;;;;;;13.27;4.77;;;8.30;99.90;;;;;;794314;180;26586;-78
2024/03/11 09:33:11;;;;;;;10.50;5.73;;;8.30;99.90;;;;;;792131;179;26446;-79
2024/03/11 09:35:36;;;;;;;7.57;4.73;;;8.40;99.90;;;;;;792611;180;26423;-78
2024/03/11 09:38:03;;;;;;;9.50;4.30;;;8.30;99.90;;;;;;792380;181;26430;-78
2024/03/11 09:40:31;;;;;;;6.47;4.03;;;8.30;99.90;;;;;;792318;180;26481;-78
2024/03/11 09:42:58;;;;;;;9.90;4.30;;;8.30;99.90;;;;;;792637;180;26450;-79
2024/03/11 09:45:23;;;;;;;7.60;3.70;;;8.30;99.90;;;;;;792726;180;26436;-79
2024/03/11 09:47:53;;;;;;;37.53;13.33;;;8.20;99.90;;;;;;792220;178;26567;-79
2024/03/11 09:50:26;;;;;;;31.07;14.23;;;8.20;99.90;;;;;;792904;180;26479;-79
2024/03/11 09:52:48;;;;;;;8.53;4.23;;;8.20;99.90;;;;;;793405;180;26428;-79
2024/03/11 09:55:15;;;;;;;7.73;3.83;;;8.20;99.90;;;;;;792624;180;26451;-79
2024/03/11 09:57:41;;;;;;;15.00;9.00;;;8.10;99.90;;;;;;794237;180;26427;-78
2024/03/11 10:00:12;;;;;;;13.73;7.50;;;8.20;99.90;;;;;;793008;180;26450;-77
2024/03/11 10:02:35;;;;;;;16.37;9.40;;;8.20;99.90;;;;;;793743;180;26546;-78
2024/03/11 10:05:02;;;;;;;14.47;5.70;;;8.20;99.90;;;;;;794962;177;26420;-77
2024/03/11 10:07:29;;;;;;;15.37;8.57;;;8.20;99.90;;;;;;797536;177;26428;-78
2024/03/11 10:09:56;;;;;;;16.60;8.20;;;8.20;99.90;;;;;;797297;176;26437;-78
2024/03/11 10:12:22;;;;;;;12.47;6.33;;;8.20;99.90;;;;;;795738;177;26424;-76
2024/03/11 10:14:52;;;;;;;11.57;4.73;;;8.20;99.90;;;;;;795787;176;26934;-77
2024/03/11 10:17:23;;;;;;;9.37;3.83;;;8.20;99.90;;;;;;795809;180;26412;-77
2024/03/11 10:19:48;;;;;;;5.33;2.83;;;8.20;99.90;;;;;;794877;176;26456;-78
2024/03/11 10:22:21;;;;;;;7.87;4.07;;;8.20;99.90;;;;;;795470;178;26497;-77
2024/03/11 10:24:47;;;;;;;6.13;2.93;;;8.30;99.90;;;;;;792991;180;26602;-78
2024/03/11 10:27:19;;;;;;;4.00;2.50;;;8.30;99.90;;;;;;792639;180;26410;-78
2024/03/11 10:29:45;;;;;;;8.03;2.60;;;8.20;99.90;;;;;;791993;180;26506;-76
2024/03/11 10:32:13;;;;;;;5.77;3.00;;;8.30;99.90;;;;;;793281;180;26646;-76
2024/03/11 10:34:57;;;;;;;8.27;4.10;;;8.30;99.90;;;;;;787878;180;27010;-77
2024/03/11 10:37:24;;;;;;;6.33;3.23;;;8.30;99.90;;;;;;793497;179;26991;-80
2024/03/11 10:39:51;;;;;;;7.17;3.27;;;8.30;99.90;;;;;;792967;178;26427;-78
2024/03/11 10:42:28;;;;;;;5.83;3.87;;;8.30;99.90;;;;;;792579;180;26578;-79
2024/03/11 10:47:45;;;;;;;4.93;3.07;;;8.30;99.90;;;;;;813524;175;26436;-78
2024/03/11 10:50:20;;;;;;;5.40;2.73;;;8.30;99.90;;;;;;817593;175;26445;-81
2024/03/11 10:52:43;;;;;;;6.20;3.00;;;8.30;99.90;;;;;;832117;171;26388;-80
2024/03/11 10:55:14;;;;;;;5.17;3.23;;;8.30;99.90;;;;;;830918;171;26448;-80
2024/03/11 10:57:50;;;;;;;4.87;3.30;;;8.30;99.90;;;;;;821466;173;26564;-79
2024/03/11 11:00:21;;;;;;;4.60;2.63;;;8.30;99.90;;;;;;829954;170;26407;-80
2024/03/11 11:02:53;;;;;;;6.30;4.00;;;8.30;99.90;;;;;;831605;171;26381;-79
2024/03/11 11:05:27;;;;;;;7.40;4.43;;;8.30;99.90;;;;;;830928;172;26454;-79
2024/03/11 11:08:02;;;;;;;8.00;4.77;;;8.30;99.90;;;;;;823647;173;26397;-79
2024/03/11 11:10:35;;;;;;;8.83;3.87;;;8.30;99.90;;;;;;830330;172;26393;-80
2024/03/11 11:13:01;;;;;;;9.37;3.70;;;8.40;99.90;;;;;;829683;172;26395;-79
2024/03/11 11:15:35;;;;;;;7.83;3.77;;;8.40;99.90;;;;;;830677;172;26396;-79
2024/03/11 11:18:03;;;;;;;5.63;3.23;;;8.40;99.90;;;;;;834699;170;26410;-78
2024/03/11 11:23:10;;;;;;;44.83;23.50;;;8.40;99.90;;;;;;834494;172;26410;-78
2024/03/11 11:25:41;;;;;;;7.67;5.33;;;8.40;99.90;;;;;;834057;169;26416;-79
2024/03/11 11:28:14;;;;;;;105.60;42.77;;;8.40;99.90;;;;;;832607;169;28143;-79
2024/03/11 11:30:43;;;;;;;6.30;4.40;;;8.40;99.90;;;;;;831334;172;26388;-80
2024/03/11 11:33:10;;;;;;;7.17;4.23;;;8.40;99.90;;;;;;831626;171;26387;-81
2024/03/11 11:35:37;;;;;;;9.13;4.97;;;8.40;99.90;;;;;;830759;172;26460;-78
2024/03/11 11:38:17;;;;;;;10.47;4.43;;;8.50;99.90;;;;;;830809;173;26422;-77
2024/03/11 11:40:50;;;;;;;19.03;8.57;;;8.50;99.90;;;;;;829765;172;26380;-79
2024/03/11 11:43:29;;;;;;;7.60;4.30;;;8.50;99.90;;;;;;830758;170;26971;-78
2024/03/11 11:46:01;;;;;;;8.27;4.50;;;8.60;99.90;;;;;;829713;172;26395;-80
2024/03/11 11:48:29;;;;;;;6.07;3.80;;;8.50;99.90;;;;;;831083;170;27029;-79
2024/03/11 11:50:58;;;;;;;7.53;4.63;;;8.60;99.90;;;;;;830550;172;26385;-79
2024/03/11 11:53:29;;;;;;;9.73;4.57;;;8.60;99.90;;;;;;830804;173;26390;-79
2024/03/11 11:56:09;;;;;;;7.67;4.40;;;8.60;99.90;;;;;;830153;171;26411;-79
2024/03/11 11:58:43;;;;;;;5.73;3.57;;;8.70;99.90;;;;;;830853;172;26549;-79
2024/03/11 12:01:13;;;;;;;9.47;5.53;;;8.70;99.90;;;;;;830498;172;26407;-80
2024/03/11 12:03:45;;;;;;;30.67;14.33;;;8.70;99.90;;;;;;831178;169;26437;-78
2024/03/11 12:06:18;;;;;;;7.37;4.67;;;8.70;99.90;;;;;;832679;171;26420;-78
2024/03/11 12:08:50;;;;;;;7.47;3.93;;;8.70;99.90;;;;;;831671;172;26380;-79
2024/03/11 12:11:17;;;;;;;9.03;5.00;;;8.70;99.90;;;;;;831865;172;26401;-79
2024/03/11 12:13:47;;;;;;;6.63;4.33;;;8.70;99.90;;;;;;831115;172;26404;-80
2024/03/11 12:16:30;;;;;;;24.10;11.63;;;8.70;99.90;;;;;;830229;172;26545;-80
2024/03/11 12:19:00;;;;;;;16.87;8.57;;;8.70;99.90;;;;;;830709;172;26922;-81
2024/03/11 12:21:28;;;;;;;9.30;3.70;;;8.70;99.90;;;;;;830030;172;26458;-80
2024/03/11 12:24:09;;;;;;;14.57;6.50;;;8.70;99.90;;;;;;830305;173;26393;-81
2024/03/11 12:26:36;;;;;;;21.40;12.50;;;8.70;99.90;;;;;;828476;173;26391;-80
2024/03/11 12:29:13;;;;;;;7.93;3.67;;;8.80;99.90;;;;;;831791;171;26601;-81
2024/03/11 12:31:43;;;;;;;9.17;3.40;;;8.80;99.90;;;;;;833005;172;26393;-80
2024/03/11 12:34:17;;;;;;;8.87;4.30;;;8.80;99.90;;;;;;833874;171;26410;-81
2024/03/11 12:36:47;;;;;;;6.57;3.50;;;8.90;99.90;;;;;;831356;173;26391;-81
2024/03/11 12:41:48;;;;;;;4.70;3.17;;;8.90;99.90;;;;;;832323;172;26529;-81
2024/03/11 12:44:18;;;;;;;5.23;3.70;;;8.90;99.90;;;;;;829684;172;26465;-80